createdAt,value
2023-02-19T00:00:22.869Z,62.33
2023-02-19T00:01:30.988Z,62.50
2023-02-19T00:02:33.730Z,62.69
2023-02-19T00:03:38.419Z,62.80
2023-02-19T00:04:41.179Z,62.72
2023-02-19T00:05:43.876Z,62.79
2023-02-19T00:06:47.796Z,62.92
2023-02-19T00:07:50.638Z,63.13
2023-02-19T00:08:53.445Z,63.21
2023-02-19T00:09:56.099Z,63.20
2023-02-19T00:11:03.769Z,63.22
2023-02-19T00:12:06.757Z,63.38
2023-02-19T00:13:09.544Z,63.25
2023-02-19T00:14:20.107Z,63.40
2023-02-19T00:15:22.726Z,63.33
2023-02-19T00:16:31.864Z,63.24
2023-02-19T00:17:34.539Z,63.32
2023-02-19T00:18:37.708Z,63.31
2023-02-19T00:19:40.372Z,63.38
2023-02-19T00:20:43.170Z,63.32
2023-02-19T00:21:45.943Z,63.34
2023-02-19T00:22:48.646Z,63.38
2023-02-19T00:23:53.033Z,63.43
2023-02-19T00:24:55.712Z,63.48
2023-02-19T00:26:06.014Z,63.48
2023-02-19T00:27:15.228Z,63.53
2023-02-19T00:28:17.858Z,63.34
2023-02-19T00:29:23.062Z,63.17
2023-02-19T00:30:25.806Z,63.14
2023-02-19T00:31:32.845Z,63.04
2023-02-19T00:32:35.980Z,62.98
2023-02-19T00:33:38.657Z,62.93
2023-02-19T00:34:41.475Z,62.95
2023-02-19T00:35:44.141Z,62.79
2023-02-19T00:36:46.915Z,62.65
2023-02-19T00:37:49.666Z,62.80
2023-02-19T00:38:53.011Z,62.67
2023-02-19T00:39:55.909Z,62.65
2023-02-19T00:41:01.409Z,62.51
2023-02-19T00:42:04.091Z,62.64
2023-02-19T00:43:06.698Z,62.58
2023-02-19T00:44:09.764Z,62.44
2023-02-19T00:45:12.416Z,62.48
2023-02-19T00:46:16.758Z,62.47
2023-02-19T00:47:19.385Z,62.44
2023-02-19T00:48:22.012Z,62.64
2023-02-19T00:49:25.271Z,62.54
2023-02-19T00:50:28.018Z,62.69
2023-02-19T00:51:33.513Z,62.85
2023-02-19T00:52:36.284Z,62.97
2023-02-19T00:53:39.139Z,63.12
2023-02-19T00:54:41.806Z,63.20
2023-02-19T00:55:44.461Z,63.32
2023-02-19T00:56:47.329Z,63.47
2023-02-19T00:57:50.105Z,63.53
2023-02-19T00:58:53.404Z,63.53
2023-02-19T00:59:56.004Z,63.41
2023-02-19T01:00:59.134Z,63.37
2023-02-19T01:02:01.757Z,63.28
2023-02-19T01:03:05.537Z,63.19
2023-02-19T01:04:08.541Z,63.38
2023-02-19T01:05:11.234Z,63.28
2023-02-19T01:06:16.445Z,63.28
2023-02-19T01:07:19.195Z,63.37
2023-02-19T01:08:22.629Z,63.38
2023-02-19T01:09:25.310Z,63.55
2023-02-19T01:10:27.959Z,63.58
2023-02-19T01:11:30.774Z,63.62
2023-02-19T01:12:33.945Z,63.78
2023-02-19T01:13:37.493Z,63.94
2023-02-19T01:14:40.135Z,63.92
2023-02-19T01:15:42.813Z,63.99
2023-02-19T01:16:45.453Z,64.19
2023-02-19T01:17:48.268Z,63.96
2023-02-19T01:18:50.959Z,63.92
2023-02-19T01:19:53.656Z,63.93
2023-02-19T01:20:56.292Z,63.94
2023-02-19T01:21:58.952Z,63.90
2023-02-19T01:23:01.621Z,63.96
2023-02-19T01:24:04.381Z,64.02
2023-02-19T01:25:07.407Z,64.01
2023-02-19T01:26:14.030Z,64.01
2023-02-19T01:27:16.680Z,64.01
2023-02-19T01:28:19.359Z,64.09
2023-02-19T01:29:22.001Z,64.19
2023-02-19T01:30:24.815Z,64.22
2023-02-19T01:31:28.259Z,64.25
2023-02-19T01:32:30.998Z,64.38
2023-02-19T01:33:36.073Z,64.36
2023-02-19T01:34:38.770Z,64.45
2023-02-19T01:35:41.395Z,64.59
2023-02-19T01:36:44.090Z,64.60
2023-02-19T01:37:46.748Z,64.78
2023-02-19T01:38:49.714Z,64.82
2023-02-19T01:39:52.482Z,64.74
2023-02-19T01:40:57.823Z,64.76
2023-02-19T01:42:00.455Z,64.67
2023-02-19T01:43:04.775Z,64.85
2023-02-19T01:44:13.314Z,64.79
2023-02-19T01:45:29.868Z,64.93
2023-02-19T01:46:34.586Z,64.93
2023-02-19T01:47:37.355Z,64.91
2023-02-19T01:48:41.025Z,64.94
2023-02-19T01:49:53.521Z,65.06
2023-02-19T01:51:10.675Z,65.18
2023-02-19T01:52:23.438Z,65.12
2023-02-19T01:53:29.503Z,65.12
2023-02-19T01:54:35.920Z,65.26
2023-02-19T01:55:40.140Z,65.39
2023-02-19T01:56:44.144Z,65.47
2023-02-19T01:57:49.442Z,65.63
2023-02-19T01:58:52.261Z,65.85
2023-02-19T02:00:02.911Z,66.01
2023-02-19T02:01:08.387Z,66.28
2023-02-19T02:02:11.224Z,66.42
2023-02-19T02:03:14.292Z,66.54
2023-02-19T02:04:18.571Z,66.60
2023-02-19T02:05:37.173Z,66.72
2023-02-19T02:06:59.819Z,66.92
2023-02-19T02:08:23.506Z,66.94
2023-02-19T02:09:48.184Z,66.96
2023-02-19T02:10:52.060Z,66.93
2023-02-19T02:11:54.760Z,66.98
2023-02-19T02:12:59.646Z,66.98
2023-02-19T02:14:02.436Z,66.98
2023-02-19T02:15:05.563Z,67.01
2023-02-19T02:16:25.557Z,67.07
2023-02-19T02:17:37.877Z,67.08
2023-02-19T02:18:43.546Z,67.00
2023-02-19T02:19:46.180Z,67.07
2023-02-19T02:21:10.822Z,67.13
2023-02-19T02:22:30.581Z,67.14
2023-02-19T02:24:02.117Z,67.16
2023-02-19T02:25:26.271Z,67.29
2023-02-19T02:27:09.141Z,67.30
2023-02-19T02:28:17.656Z,67.36
2023-02-19T02:29:57.703Z,67.67
2023-02-19T02:31:07.579Z,67.74
2023-02-19T02:32:20.425Z,67.88
2023-02-19T02:33:37.677Z,68.08
2023-02-19T02:35:02.661Z,67.87
2023-02-19T02:36:25.701Z,67.90
2023-02-19T02:37:32.000Z,67.85
2023-02-19T02:38:38.682Z,68.02
2023-02-19T02:39:43.215Z,68.08
2023-02-19T02:40:46.439Z,68.08
2023-02-19T02:42:17.445Z,67.96
2023-02-19T02:43:20.142Z,67.81
2023-02-19T02:44:22.804Z,67.65
2023-02-19T02:45:36.303Z,67.58
2023-02-19T02:46:45.241Z,67.34
2023-02-19T02:47:53.725Z,67.28
2023-02-19T02:49:06.503Z,67.28
2023-02-19T02:50:15.708Z,67.42
2023-02-19T02:51:24.497Z,67.53
2023-02-19T02:52:45.767Z,67.62
2023-02-19T02:54:39.211Z,67.53
2023-02-19T02:55:45.639Z,67.62
2023-02-19T02:56:49.928Z,67.59
2023-02-19T02:57:53.166Z,67.56
2023-02-19T02:58:58.056Z,67.49
2023-02-19T03:00:01.385Z,67.18
2023-02-19T03:01:29.546Z,67.18
2023-02-19T03:02:32.561Z,67.10
2023-02-19T03:03:37.165Z,66.99
2023-02-19T03:05:13.585Z,66.95
2023-02-19T03:06:21.896Z,67.05
2023-02-19T03:07:25.607Z,67.09
2023-02-19T03:09:03.295Z,67.14
2023-02-19T03:10:11.398Z,67.19
2023-02-19T03:11:32.633Z,67.21
2023-02-19T03:12:57.047Z,67.18
2023-02-19T03:14:27.054Z,67.33
2023-02-19T03:15:54.984Z,67.28
2023-02-19T03:17:21.655Z,67.34
2023-02-19T03:18:45.645Z,67.49
2023-02-19T03:19:53.965Z,67.48
2023-02-19T03:20:59.355Z,67.59
2023-02-19T03:22:11.065Z,67.90
2023-02-19T03:23:15.997Z,68.15
2023-02-19T03:24:40.948Z,68.35
2023-02-19T03:26:02.746Z,68.43
2023-02-19T03:27:06.065Z,68.43
2023-02-19T03:28:12.361Z,68.59
2023-02-19T03:29:24.719Z,68.65
2023-02-19T03:30:33.233Z,69.00
2023-02-19T03:31:38.812Z,69.07
2023-02-19T03:32:49.021Z,69.21
2023-02-19T03:33:57.326Z,69.28
2023-02-19T03:35:14.964Z,69.33
2023-02-19T03:36:19.969Z,69.44
2023-02-19T03:37:39.514Z,69.38
2023-02-19T03:39:04.584Z,69.33
2023-02-19T03:40:07.825Z,69.23
2023-02-19T03:41:36.379Z,69.31
2023-02-19T03:43:00.624Z,69.20
2023-02-19T03:44:17.305Z,69.22
2023-02-19T03:45:26.097Z,69.18
2023-02-19T03:46:43.326Z,69.11
2023-02-19T03:47:50.928Z,69.04
2023-02-19T03:49:02.639Z,69.03
2023-02-19T03:50:23.006Z,69.00
2023-02-19T03:51:40.350Z,68.85
2023-02-19T03:52:55.742Z,68.77
2023-02-19T03:54:13.463Z,68.78
2023-02-19T03:55:24.034Z,68.66
2023-02-19T03:56:37.989Z,68.73
2023-02-19T03:58:20.879Z,68.84
2023-02-19T03:59:30.056Z,68.96
2023-02-19T04:01:00.786Z,69.03
2023-02-19T04:02:33.688Z,68.94
2023-02-19T04:03:44.916Z,68.90
2023-02-19T04:04:54.333Z,68.96
2023-02-19T04:06:04.418Z,68.97
2023-02-19T04:07:07.274Z,69.11
2023-02-19T04:08:18.065Z,69.02
2023-02-19T04:09:23.150Z,69.07
2023-02-19T04:10:27.619Z,69.23
2023-02-19T04:11:32.703Z,69.19
2023-02-19T04:12:39.403Z,69.21
2023-02-19T04:13:55.674Z,69.29
2023-02-19T04:15:07.599Z,69.31
2023-02-19T04:16:16.068Z,69.40
2023-02-19T04:17:23.349Z,69.35
2023-02-19T04:18:31.560Z,69.41
2023-02-19T04:19:38.052Z,69.44
2023-02-19T04:20:45.033Z,69.48
2023-02-19T04:21:48.868Z,69.50
2023-02-19T04:22:52.286Z,69.50
2023-02-19T04:23:55.068Z,69.41
2023-02-19T04:24:57.853Z,69.47
2023-02-19T04:26:02.312Z,69.44
2023-02-19T04:27:07.081Z,69.49
2023-02-19T04:28:10.762Z,69.43
2023-02-19T04:29:13.429Z,69.50
2023-02-19T04:30:16.710Z,69.48
2023-02-19T04:31:19.586Z,69.65
2023-02-19T04:32:22.367Z,69.58
2023-02-19T04:33:25.067Z,69.51
2023-02-19T04:34:27.680Z,69.44
2023-02-19T04:35:30.309Z,69.36
2023-02-19T04:36:33.861Z,69.25
2023-02-19T04:37:36.567Z,69.16
2023-02-19T04:38:39.385Z,69.08
2023-02-19T04:39:42.040Z,69.04
2023-02-19T04:40:44.718Z,69.00
2023-02-19T04:41:47.368Z,68.97
2023-02-19T04:42:50.041Z,68.89
2023-02-19T04:43:52.856Z,68.83
2023-02-19T04:44:55.519Z,68.81
2023-02-19T04:46:02.674Z,68.77
2023-02-19T04:47:05.543Z,68.70
2023-02-19T04:48:08.222Z,68.58
2023-02-19T04:49:11.080Z,68.54
2023-02-19T04:50:13.871Z,68.52
2023-02-19T04:51:16.520Z,68.56
2023-02-19T04:52:19.368Z,68.51
2023-02-19T04:53:22.081Z,68.42
2023-02-19T04:54:24.912Z,68.52
2023-02-19T04:55:27.535Z,68.61
2023-02-19T04:56:30.212Z,68.77
2023-02-19T04:57:32.849Z,68.76
2023-02-19T04:58:36.355Z,68.78
2023-02-19T04:59:38.980Z,68.72
2023-02-19T05:00:41.611Z,68.61
2023-02-19T05:01:44.459Z,68.58
2023-02-19T05:02:47.120Z,68.54
2023-02-19T05:03:49.798Z,68.44
2023-02-19T05:04:52.440Z,68.32
2023-02-19T05:05:55.084Z,68.32
2023-02-19T05:06:57.702Z,68.31
2023-02-19T05:08:00.369Z,68.29
2023-02-19T05:09:03.140Z,68.32
2023-02-19T05:10:06.272Z,68.37
2023-02-19T05:11:11.937Z,68.39
2023-02-19T05:12:14.824Z,68.39
2023-02-19T05:13:17.440Z,68.37
2023-02-19T05:14:20.264Z,68.35
2023-02-19T05:15:22.917Z,68.40
2023-02-19T05:16:25.575Z,68.31
2023-02-19T05:17:28.232Z,68.23
2023-02-19T05:18:32.137Z,67.81
2023-02-19T05:19:34.748Z,68.00
2023-02-19T05:20:37.908Z,68.05
2023-02-19T05:21:42.548Z,68.25
2023-02-19T05:22:45.240Z,68.54
2023-02-19T05:23:47.885Z,68.64
2023-02-19T05:24:50.662Z,68.79
2023-02-19T05:25:53.363Z,69.31
2023-02-19T05:26:56.008Z,69.37
2023-02-19T05:28:18.116Z,69.51
2023-02-19T05:29:20.847Z,69.75
2023-02-19T05:30:23.593Z,69.87
2023-02-19T05:31:26.427Z,70.13
2023-02-19T05:32:29.104Z,70.26
2023-02-19T05:33:31.729Z,70.41
2023-02-19T05:34:34.384Z,70.69
2023-02-19T05:35:44.685Z,70.67
2023-02-19T05:36:47.341Z,70.73
2023-02-19T05:37:49.989Z,70.87
2023-02-19T05:38:57.024Z,70.84
2023-02-19T05:39:59.663Z,71.01
2023-02-19T05:41:14.645Z,71.01
2023-02-19T05:42:17.349Z,71.02
2023-02-19T05:43:20.037Z,71.06
2023-02-19T05:44:22.705Z,71.19
2023-02-19T05:45:25.408Z,71.22
2023-02-19T05:46:33.445Z,71.46
2023-02-19T05:47:36.203Z,71.52
2023-02-19T05:48:38.883Z,71.67
2023-02-19T05:49:41.539Z,71.76
2023-02-19T05:50:44.148Z,71.80
2023-02-19T05:51:46.841Z,71.83
2023-02-19T05:52:49.461Z,71.93
2023-02-19T05:53:52.279Z,72.45
2023-02-19T05:54:54.881Z,72.69
2023-02-19T05:55:57.599Z,72.82
2023-02-19T05:57:00.260Z,73.13
2023-02-19T05:58:02.968Z,73.68
2023-02-19T05:59:19.812Z,73.89
2023-02-19T06:00:23.086Z,73.62
2023-02-19T06:01:28.809Z,73.96
2023-02-19T06:02:31.523Z,73.62
2023-02-19T06:03:34.182Z,73.69
2023-02-19T06:04:37.353Z,74.34
2023-02-19T06:05:40.015Z,74.22
2023-02-19T06:06:44.644Z,73.66
2023-02-19T06:07:47.359Z,73.77
2023-02-19T06:08:51.484Z,73.98
2023-02-19T06:09:54.263Z,73.73
2023-02-19T06:10:56.888Z,73.80
2023-02-19T06:11:59.517Z,73.72
2023-02-19T06:13:02.144Z,73.47
2023-02-19T06:14:05.672Z,73.46
2023-02-19T06:15:08.787Z,73.57
2023-02-19T06:16:12.177Z,73.74
2023-02-19T06:17:15.501Z,73.78
2023-02-19T06:18:18.164Z,73.78
2023-02-19T06:19:20.931Z,73.84
2023-02-19T06:20:25.002Z,74.08
2023-02-19T06:21:29.250Z,74.00
2023-02-19T06:22:31.975Z,73.84
2023-02-19T06:23:35.091Z,73.70
2023-02-19T06:24:38.754Z,73.70
2023-02-19T06:25:41.623Z,73.72
2023-02-19T06:26:44.308Z,73.67
2023-02-19T06:27:46.966Z,73.78
2023-02-19T06:28:51.524Z,73.64
2023-02-19T06:29:54.292Z,73.57
2023-02-19T06:30:59.078Z,73.40
2023-02-19T06:32:02.359Z,73.25
2023-02-19T06:33:05.166Z,73.15
2023-02-19T06:34:07.846Z,73.36
2023-02-19T06:35:10.456Z,73.56
2023-02-19T06:36:16.382Z,73.48
2023-02-19T06:37:19.042Z,73.47
2023-02-19T06:38:24.524Z,73.40
2023-02-19T06:39:27.508Z,73.48
2023-02-19T06:40:30.380Z,73.46
2023-02-19T06:41:33.612Z,73.29
2023-02-19T06:42:36.286Z,73.24
2023-02-19T06:43:39.072Z,73.20
2023-02-19T06:44:41.787Z,73.08
2023-02-19T06:45:44.475Z,72.80
2023-02-19T06:46:47.224Z,72.66
2023-02-19T06:47:49.908Z,72.59
2023-02-19T06:48:52.668Z,72.26
2023-02-19T06:49:55.334Z,72.00
2023-02-19T06:50:58.122Z,71.87
2023-02-19T06:52:01.668Z,71.86
2023-02-19T06:53:04.320Z,71.75
2023-02-19T06:54:07.014Z,71.71
2023-02-19T06:55:10.260Z,71.66
2023-02-19T06:56:22.149Z,71.67
2023-02-19T06:57:24.813Z,71.62
2023-02-19T06:58:27.834Z,71.50
2023-02-19T06:59:30.542Z,71.46
2023-02-19T07:00:33.358Z,71.43
2023-02-19T07:01:37.393Z,71.38
2023-02-19T07:02:40.050Z,71.49
2023-02-19T07:03:42.879Z,71.55
2023-02-19T07:04:46.208Z,71.48
2023-02-19T07:05:49.184Z,71.44
2023-02-19T07:06:51.882Z,71.51
2023-02-19T07:07:54.637Z,71.53
2023-02-19T07:08:59.102Z,71.55
2023-02-19T07:10:01.755Z,71.50
2023-02-19T07:11:04.426Z,71.38
2023-02-19T07:12:07.341Z,71.39
2023-02-19T07:13:09.969Z,71.40
2023-02-19T07:14:16.629Z,71.60
2023-02-19T07:15:19.427Z,71.60
2023-02-19T07:16:22.098Z,71.53
2023-02-19T07:17:24.734Z,71.57
2023-02-19T07:18:27.580Z,71.59
2023-02-19T07:19:30.360Z,71.57
2023-02-19T07:20:33.000Z,71.47
2023-02-19T07:21:38.798Z,71.43
2023-02-19T07:22:41.440Z,71.46
2023-02-19T07:23:44.868Z,71.40
2023-02-19T07:24:48.033Z,71.41
2023-02-19T07:25:50.784Z,71.52
2023-02-19T07:26:53.459Z,71.56
2023-02-19T07:27:56.586Z,71.65
2023-02-19T07:28:59.384Z,71.93
2023-02-19T07:30:03.231Z,72.50
2023-02-19T07:31:06.177Z,73.29
2023-02-19T07:32:09.013Z,73.39
2023-02-19T07:33:12.022Z,73.42
2023-02-19T07:34:14.675Z,73.75
2023-02-19T07:35:17.329Z,74.13
2023-02-19T07:36:21.871Z,74.68
2023-02-19T07:37:24.615Z,74.85
2023-02-19T07:38:27.865Z,75.06
2023-02-19T07:39:30.503Z,75.30
2023-02-19T07:40:33.169Z,75.42
2023-02-19T07:41:35.994Z,75.58
2023-02-19T07:42:38.876Z,75.26
2023-02-19T07:43:41.913Z,75.52
2023-02-19T07:44:44.578Z,75.48
2023-02-19T07:45:47.403Z,75.57
2023-02-19T07:46:50.755Z,75.57
2023-02-19T07:47:53.519Z,75.45
2023-02-19T07:48:56.204Z,75.65
2023-02-19T07:49:58.950Z,75.90
2023-02-19T07:51:02.887Z,76.05
2023-02-19T07:52:05.807Z,76.02
2023-02-19T07:53:09.257Z,76.34
2023-02-19T07:54:12.589Z,76.35
2023-02-19T07:55:15.347Z,76.72
2023-02-19T07:56:18.877Z,76.67
2023-02-19T07:57:21.519Z,77.05
2023-02-19T07:58:24.136Z,77.19
2023-02-19T07:59:26.848Z,77.17
2023-02-19T08:00:29.508Z,76.70
2023-02-19T08:01:50.844Z,76.81
2023-02-19T08:03:02.872Z,76.06
2023-02-19T08:04:05.614Z,75.46
2023-02-19T08:05:08.486Z,76.16
2023-02-19T08:06:14.885Z,75.90
2023-02-19T08:07:17.556Z,76.22
2023-02-19T08:08:20.277Z,76.77
2023-02-19T08:09:22.912Z,77.00
2023-02-19T08:10:44.697Z,76.99
2023-02-19T08:12:05.712Z,77.29
2023-02-19T08:13:20.649Z,77.65
2023-02-19T08:14:30.065Z,78.36
2023-02-19T08:15:34.096Z,78.48
2023-02-19T08:16:42.973Z,79.06
2023-02-19T08:17:46.148Z,79.30
2023-02-19T08:18:49.981Z,79.49
2023-02-19T08:19:52.674Z,79.25
2023-02-19T08:20:56.882Z,79.51
2023-02-19T08:21:59.653Z,79.54
2023-02-19T08:23:02.472Z,80.13
2023-02-19T08:24:05.470Z,79.94
2023-02-19T08:25:08.562Z,79.69
2023-02-19T08:26:11.207Z,79.77
2023-02-19T08:27:13.836Z,79.98
2023-02-19T08:28:16.979Z,80.35
2023-02-19T08:29:20.281Z,80.27
2023-02-19T08:30:23.746Z,80.53
2023-02-19T08:31:26.771Z,80.44
2023-02-19T08:32:29.471Z,80.52
2023-02-19T08:33:32.255Z,80.42
2023-02-19T08:34:34.886Z,80.38
2023-02-19T08:35:37.792Z,80.41
2023-02-19T08:36:40.509Z,80.41
2023-02-19T08:37:43.138Z,80.24
2023-02-19T08:38:45.809Z,80.31
2023-02-19T08:39:48.467Z,80.27
2023-02-19T08:40:51.216Z,80.45
2023-02-19T08:41:53.897Z,80.39
2023-02-19T08:42:56.648Z,80.21
2023-02-19T08:43:59.396Z,80.45
2023-02-19T08:45:02.025Z,80.43
2023-02-19T08:46:08.124Z,80.31
2023-02-19T08:47:10.824Z,79.89
2023-02-19T08:48:13.735Z,80.03
2023-02-19T08:49:17.525Z,80.11
2023-02-19T08:50:20.241Z,80.54
2023-02-19T08:51:22.913Z,80.58
2023-02-19T08:52:25.543Z,80.56
2023-02-19T08:53:28.486Z,80.31
2023-02-19T08:54:31.373Z,80.21
2023-02-19T08:55:34.652Z,80.23
2023-02-19T08:56:37.588Z,79.73
2023-02-19T08:57:40.454Z,79.79
2023-02-19T08:58:44.003Z,79.60
2023-02-19T08:59:46.644Z,79.85
2023-02-19T09:00:49.900Z,79.85
2023-02-19T09:01:55.227Z,79.86
2023-02-19T09:02:59.617Z,79.56
2023-02-19T09:04:02.436Z,79.44
2023-02-19T09:05:06.634Z,79.30
2023-02-19T09:06:12.641Z,79.26
2023-02-19T09:07:15.496Z,79.22
2023-02-19T09:08:18.136Z,79.17
2023-02-19T09:09:20.782Z,79.14
2023-02-19T09:10:23.717Z,79.18
2023-02-19T09:11:26.801Z,79.04
2023-02-19T09:12:29.464Z,79.02
2023-02-19T09:13:32.506Z,79.32
2023-02-19T09:14:36.116Z,79.60
2023-02-19T09:15:40.074Z,79.41
2023-02-19T09:16:42.710Z,79.38
2023-02-19T09:17:45.355Z,79.31
2023-02-19T09:18:48.117Z,79.20
2023-02-19T09:19:50.961Z,78.89
2023-02-19T09:20:53.803Z,78.51
2023-02-19T09:21:56.786Z,78.34
2023-02-19T09:23:00.539Z,78.16
2023-02-19T09:24:03.182Z,78.03
2023-02-19T09:25:06.131Z,77.87
2023-02-19T09:26:11.103Z,77.80
2023-02-19T09:27:18.923Z,77.72
2023-02-19T09:28:22.976Z,77.73
2023-02-19T09:29:27.390Z,77.86
2023-02-19T09:30:30.174Z,77.81
2023-02-19T09:31:33.672Z,77.73
2023-02-19T09:32:36.371Z,77.73
2023-02-19T09:33:39.144Z,77.83
2023-02-19T09:34:41.981Z,77.91
2023-02-19T09:35:44.624Z,77.88
2023-02-19T09:36:50.377Z,77.97
2023-02-19T09:37:53.109Z,78.41
2023-02-19T09:38:55.909Z,78.44
2023-02-19T09:39:59.761Z,78.48
2023-02-19T09:41:09.498Z,78.22
2023-02-19T09:42:20.418Z,77.97
2023-02-19T09:43:26.789Z,77.79
2023-02-19T09:44:33.335Z,77.72
2023-02-19T09:45:37.116Z,77.93
2023-02-19T09:46:49.775Z,78.01
2023-02-19T09:47:59.065Z,78.14
2023-02-19T09:49:08.804Z,78.57
2023-02-19T09:50:16.060Z,78.83
2023-02-19T09:51:19.066Z,78.85
2023-02-19T09:52:31.779Z,78.86
2023-02-19T09:53:42.956Z,79.10
2023-02-19T09:54:47.505Z,79.24
2023-02-19T09:55:50.883Z,80.20
2023-02-19T09:56:56.662Z,80.29
2023-02-19T09:58:02.428Z,80.63
2023-02-19T09:59:06.601Z,80.62
2023-02-19T10:00:35.948Z,81.14
2023-02-19T10:01:41.380Z,81.28
2023-02-19T10:02:44.072Z,81.57
2023-02-19T10:03:49.726Z,81.52
2023-02-19T10:04:53.698Z,81.77
2023-02-19T10:05:57.645Z,81.56
2023-02-19T10:07:04.533Z,81.75
2023-02-19T10:08:14.288Z,81.68
2023-02-19T10:09:24.805Z,81.73
2023-02-19T10:10:35.407Z,80.85
2023-02-19T10:11:38.659Z,80.29
2023-02-19T10:12:51.578Z,80.59
2023-02-19T10:14:10.214Z,80.59
2023-02-19T10:15:20.093Z,80.00
2023-02-19T10:16:27.123Z,78.60
2023-02-19T10:17:35.737Z,79.44
2023-02-19T10:18:43.726Z,79.88
2023-02-19T10:19:46.460Z,79.31
2023-02-19T10:20:50.854Z,78.98
2023-02-19T10:21:53.644Z,79.05
2023-02-19T10:23:11.797Z,77.74
2023-02-19T10:24:28.155Z,77.08
2023-02-19T10:25:32.252Z,77.03
2023-02-19T10:26:36.412Z,76.75
2023-02-19T10:27:39.196Z,76.64
2023-02-19T10:28:41.860Z,77.13
2023-02-19T10:29:46.001Z,76.84
2023-02-19T10:30:54.051Z,77.91
2023-02-19T10:32:15.448Z,77.90
2023-02-19T10:33:18.221Z,77.79
2023-02-19T10:34:23.678Z,76.74
2023-02-19T10:35:26.700Z,74.96
2023-02-19T10:36:40.629Z,75.06
2023-02-19T10:37:46.132Z,74.90
2023-02-19T10:38:49.104Z,74.85
2023-02-19T10:39:52.039Z,71.78
2023-02-19T10:41:07.562Z,72.44
2023-02-19T10:42:22.769Z,71.02
2023-02-19T10:43:34.266Z,70.79
2023-02-19T10:44:43.767Z,71.34
2023-02-19T10:45:54.314Z,72.01
2023-02-19T10:47:00.913Z,71.52
2023-02-19T10:48:04.518Z,71.70
2023-02-19T10:49:25.590Z,69.46
2023-02-19T10:50:34.667Z,69.86
2023-02-19T10:51:42.172Z,69.23
2023-02-19T10:52:45.028Z,68.77
2023-02-19T10:53:50.144Z,68.84
2023-02-19T10:54:58.927Z,67.74
2023-02-19T10:56:15.174Z,67.47
2023-02-19T10:57:22.135Z,68.75
2023-02-19T10:58:29.702Z,69.02
2023-02-19T10:59:32.373Z,68.76
2023-02-19T11:00:35.029Z,67.57
2023-02-19T11:01:40.724Z,67.89
2023-02-19T11:02:46.809Z,69.09
2023-02-19T11:03:54.265Z,69.34
2023-02-19T11:05:17.983Z,68.35
2023-02-19T11:06:26.910Z,66.62
2023-02-19T11:07:29.936Z,66.20
2023-02-19T11:08:46.250Z,66.38
2023-02-19T11:09:54.821Z,65.65
2023-02-19T11:10:57.706Z,65.10
2023-02-19T11:12:00.592Z,63.59
2023-02-19T11:13:06.896Z,63.91
2023-02-19T11:14:19.432Z,63.36
2023-02-19T11:15:30.013Z,62.63
2023-02-19T11:16:48.840Z,63.00
2023-02-19T11:18:15.447Z,63.15
2023-02-19T11:19:44.177Z,62.30
2023-02-19T11:20:56.555Z,61.23
2023-02-19T11:22:00.747Z,60.76
2023-02-19T11:23:16.113Z,61.57
2023-02-19T11:24:31.993Z,62.07
2023-02-19T11:25:35.056Z,62.42
2023-02-19T11:26:39.229Z,62.31
2023-02-19T11:28:08.236Z,61.64
2023-02-19T11:29:24.314Z,61.37
2023-02-19T11:30:36.342Z,61.56
2023-02-19T11:31:39.410Z,60.98
2023-02-19T11:32:42.064Z,60.49
2023-02-19T11:33:55.706Z,59.97
2023-02-19T11:35:20.406Z,59.36
2023-02-19T11:36:30.034Z,59.43
2023-02-19T11:37:33.886Z,59.73
2023-02-19T11:38:36.637Z,58.34
2023-02-19T11:39:45.246Z,59.10
2023-02-19T11:40:50.928Z,59.27
2023-02-19T11:42:20.923Z,60.49
2023-02-19T11:44:00.245Z,60.68
2023-02-19T11:45:36.275Z,59.71
2023-02-19T11:47:18.365Z,57.44
2023-02-19T11:48:37.868Z,56.32
2023-02-19T11:50:05.144Z,56.56
2023-02-19T11:51:25.369Z,57.13
2023-02-19T11:53:11.597Z,57.10
2023-02-19T11:54:31.070Z,56.78
2023-02-19T11:55:54.998Z,57.45
2023-02-19T11:57:07.827Z,57.89
2023-02-19T11:58:22.221Z,57.54
2023-02-19T11:59:41.237Z,55.88
2023-02-19T12:00:59.861Z,56.81
2023-02-19T12:02:55.670Z,56.61
2023-02-19T12:04:16.530Z,55.97
2023-02-19T12:05:24.617Z,56.62
2023-02-19T12:06:47.556Z,57.19
2023-02-19T12:08:21.869Z,56.63
2023-02-19T12:09:44.742Z,56.08
2023-02-19T12:11:11.884Z,56.00
2023-02-19T12:12:45.034Z,56.53
2023-02-19T12:13:50.521Z,56.25
2023-02-19T12:15:21.365Z,56.64
2023-02-19T12:16:30.680Z,55.18
2023-02-19T12:17:56.493Z,54.80
2023-02-19T12:19:20.921Z,55.73
2023-02-19T12:20:31.519Z,56.33
2023-02-19T12:22:05.599Z,55.16
2023-02-19T12:23:30.013Z,55.88
2023-02-19T12:25:09.673Z,55.64
2023-02-19T12:26:48.586Z,56.32
2023-02-19T12:28:21.208Z,55.35
2023-02-19T12:29:29.277Z,55.16
2023-02-19T12:30:45.253Z,55.27
2023-02-19T12:32:17.720Z,54.26
2023-02-19T12:33:20.446Z,53.35
2023-02-19T12:34:47.404Z,54.49
2023-02-19T12:36:18.620Z,54.75
2023-02-19T12:37:40.299Z,54.84
2023-02-19T12:38:59.161Z,54.24
2023-02-19T12:40:20.604Z,53.48
2023-02-19T12:41:32.399Z,53.20
2023-02-19T12:42:40.956Z,53.15
2023-02-19T12:43:54.801Z,53.78
2023-02-19T12:45:02.380Z,54.40
2023-02-19T12:46:22.583Z,55.03
2023-02-19T12:47:41.724Z,55.37
2023-02-19T12:48:54.491Z,55.29
2023-02-19T12:50:13.962Z,55.57
2023-02-19T12:51:25.033Z,55.58
2023-02-19T12:52:32.805Z,55.87
2023-02-19T12:53:52.169Z,55.70
2023-02-19T12:54:59.174Z,55.85
2023-02-19T12:56:06.833Z,56.42
2023-02-19T12:57:19.021Z,56.36
2023-02-19T12:58:31.470Z,56.18
2023-02-19T13:00:08.588Z,55.43
2023-02-19T13:01:23.370Z,56.14
2023-02-19T13:02:35.163Z,56.35
2023-02-19T13:03:51.127Z,55.67
2023-02-19T13:05:07.935Z,56.00
2023-02-19T13:06:32.479Z,55.59
2023-02-19T13:08:03.585Z,55.98
2023-02-19T13:09:34.927Z,55.13
2023-02-19T13:10:58.440Z,55.36
2023-02-19T13:12:08.171Z,55.38
2023-02-19T13:13:43.430Z,55.86
2023-02-19T13:14:49.869Z,55.99
2023-02-19T13:16:00.275Z,55.11
2023-02-19T13:17:14.452Z,55.14
2023-02-19T13:18:41.031Z,56.05
2023-02-19T13:19:47.835Z,55.93
2023-02-19T13:20:52.843Z,55.67
2023-02-19T13:22:36.697Z,56.55
2023-02-19T13:24:04.260Z,55.86
2023-02-19T13:25:09.930Z,54.58
2023-02-19T13:26:30.820Z,55.25
2023-02-19T13:27:57.069Z,55.31
2023-02-19T13:29:23.980Z,56.01
2023-02-19T13:30:55.851Z,54.64
2023-02-19T13:32:20.248Z,54.24
2023-02-19T13:33:59.145Z,54.92
2023-02-19T13:35:40.174Z,55.25
2023-02-19T13:36:43.211Z,55.60
2023-02-19T13:37:46.404Z,54.86
2023-02-19T13:38:51.059Z,55.21
2023-02-19T13:39:56.337Z,54.64
2023-02-19T13:41:01.213Z,53.79
2023-02-19T13:42:06.964Z,54.21
2023-02-19T13:43:26.880Z,54.16
2023-02-19T13:44:32.440Z,54.16
2023-02-19T13:45:37.290Z,54.70
2023-02-19T13:46:43.236Z,54.73
2023-02-19T13:48:00.640Z,54.80
2023-02-19T13:49:25.029Z,55.16
2023-02-19T13:50:33.331Z,55.20
2023-02-19T13:51:36.102Z,55.41
2023-02-19T13:52:40.823Z,55.60
2023-02-19T13:53:55.226Z,55.02
2023-02-19T13:55:35.145Z,56.08
2023-02-19T13:56:39.321Z,56.16
2023-02-19T13:57:42.840Z,56.16
2023-02-19T13:59:14.835Z,57.96
2023-02-19T14:00:52.358Z,59.62
2023-02-19T14:01:58.096Z,61.98
2023-02-19T14:03:40.940Z,65.44
2023-02-19T14:04:45.208Z,66.75
2023-02-19T14:06:07.443Z,68.56
2023-02-19T14:07:10.153Z,69.26
2023-02-19T14:08:12.833Z,70.28
2023-02-19T14:09:41.068Z,71.01
2023-02-19T14:10:55.026Z,72.09
2023-02-19T14:12:15.642Z,72.98
2023-02-19T14:13:52.565Z,73.27
2023-02-19T14:14:56.577Z,73.76
2023-02-19T14:15:59.343Z,73.83
2023-02-19T14:17:06.749Z,74.66
2023-02-19T14:18:46.962Z,74.63
2023-02-19T14:19:57.938Z,75.41
2023-02-19T14:21:26.989Z,75.99
2023-02-19T14:22:47.723Z,75.51
2023-02-19T14:23:56.653Z,76.23
2023-02-19T14:24:59.832Z,76.06
2023-02-19T14:26:05.532Z,76.32
2023-02-19T14:27:08.296Z,76.87
2023-02-19T14:28:36.877Z,77.26
2023-02-19T14:29:41.705Z,77.69
2023-02-19T14:30:54.945Z,77.85
2023-02-19T14:31:58.482Z,78.60
2023-02-19T14:33:11.049Z,78.41
2023-02-19T14:34:26.003Z,78.95
2023-02-19T14:35:37.402Z,78.29
2023-02-19T14:37:02.112Z,78.67
2023-02-19T14:38:06.476Z,78.88
2023-02-19T14:39:38.967Z,79.18
2023-02-19T14:40:43.190Z,79.61
2023-02-19T14:41:54.116Z,79.51
2023-02-19T14:43:01.214Z,79.35
2023-02-19T14:44:05.653Z,79.40